ePrivacy and GPDR Cookie Consent by Cookie Consent
EmailTwitter


Observations de surface / Québec / CYQB (71714)

Régions: Québec | Canada | États-Unis | Europe | France | UK | Ailleurs
Station
Affichage
Infos & localisation pour CYQB (71714) | Aide pour décoder les METARs

Observations prises le 2021-10-17 à 16H00 UTC à QUEBEC A, QB (CYQB)

Etat du ciel: partiellement nuageux.

Température: 12.0 Celsius

Point de rosée: 8.0 Celsius

Humidité relative: 77%

Facteur vent 10.

Vents: Ouest à 20 km/h ou 11 noeuds.

Pression au niveau moyen de la mer: 100.21 kilopascals.

Calage altimétrique: 100.20 kilopascals ou 29.59 pouces de mercure.

Visibilité horizontale: 30.00 milles terrestres ou 48.00 kilomètres.

Hauteur du plafond: 975 mètres ( 3200 pieds ).

Observation METAR:

CYQB 171600Z 27011KT 30SM BKN032 BKN060 12/08 A2959 RMK SC7SC1 SC TR SLP021

DENSITY ALT 400FT=